createdAt,value
2017-12-17T00:00:19.988Z,26.10
2017-12-17T00:00:55.953Z,25.90
2017-12-17T00:01:31.545Z,24.30
2017-12-17T00:02:06.867Z,22.60
2017-12-17T00:02:43.036Z,28.90
2017-12-17T00:03:18.134Z,30.80
2017-12-17T00:03:53.219Z,25.20
2017-12-17T00:04:28.424Z,28.10
2017-12-17T00:05:03.736Z,28.90
2017-12-17T00:05:38.812Z,25.40
2017-12-17T00:06:14.332Z,22.40
2017-12-17T00:06:49.689Z,24.10
2017-12-17T00:07:25.326Z,23.30
2017-12-17T00:08:00.698Z,21.50
2017-12-17T00:08:35.985Z,24.00
2017-12-17T00:09:11.180Z,23.30
2017-12-17T00:09:46.369Z,28.60
2017-12-17T00:10:21.662Z,23.80
2017-12-17T00:10:56.965Z,24.90
2017-12-17T00:11:32.370Z,23.40
2017-12-17T00:12:07.781Z,24.70
2017-12-17T00:12:44.597Z,25.90
2017-12-17T00:13:19.701Z,22.70
2017-12-17T00:13:55.381Z,22.20
2017-12-17T00:14:30.679Z,26.90
2017-12-17T00:15:06.096Z,26.90
2017-12-17T00:15:41.282Z,23.50
2017-12-17T00:16:16.981Z,20.30
2017-12-17T00:16:52.389Z,27.70
2017-12-17T00:17:28.484Z,28.20
2017-12-17T00:18:03.736Z,27.00
2017-12-17T00:18:41.426Z,25.90
2017-12-17T00:19:16.943Z,24.60
2017-12-17T00:19:52.430Z,21.20
2017-12-17T00:20:27.846Z,24.60
2017-12-17T00:21:03.248Z,29.40
2017-12-17T00:21:38.618Z,23.80
2017-12-17T00:22:14.124Z,20.90
2017-12-17T00:22:51.580Z,26.30
2017-12-17T00:23:27.105Z,26.40
2017-12-17T00:24:02.285Z,25.80
2017-12-17T00:24:37.913Z,23.10
2017-12-17T00:25:16.537Z,22.60
2017-12-17T00:25:51.910Z,24.00
2017-12-17T00:26:27.109Z,23.20
2017-12-17T00:27:02.906Z,25.80
2017-12-17T00:27:38.711Z,34.10
2017-12-17T00:28:13.829Z,30.90
2017-12-17T00:28:49.427Z,24.10
2017-12-17T00:29:24.823Z,25.40
2017-12-17T00:30:00.401Z,27.70
2017-12-17T00:30:37.499Z,27.40
2017-12-17T00:31:12.915Z,24.60
2017-12-17T00:31:49.791Z,27.90
2017-12-17T00:32:25.301Z,24.30
2017-12-17T00:33:02.579Z,26.70
2017-12-17T00:33:37.878Z,28.00
2017-12-17T00:34:13.104Z,30.60
2017-12-17T00:34:48.502Z,29.40
2017-12-17T00:35:24.099Z,27.30
2017-12-17T00:35:59.271Z,27.80
2017-12-17T00:36:34.678Z,27.30
2017-12-17T00:37:09.881Z,25.10
2017-12-17T00:37:45.353Z,27.10
2017-12-17T00:38:20.649Z,26.00
2017-12-17T00:38:55.816Z,20.80
2017-12-17T00:39:31.242Z,23.80
2017-12-17T00:40:06.636Z,28.30
2017-12-17T00:40:44.010Z,26.60
2017-12-17T00:41:19.293Z,25.50
2017-12-17T00:41:54.770Z,26.10
2017-12-17T00:42:30.167Z,25.10
2017-12-17T00:43:08.360Z,23.60
2017-12-17T00:43:45.345Z,25.40
2017-12-17T00:44:20.937Z,25.60
2017-12-17T00:44:56.558Z,25.10
2017-12-17T00:45:32.043Z,25.90
2017-12-17T00:46:07.142Z,27.80
2017-12-17T00:46:45.111Z,31.40
2017-12-17T00:47:20.329Z,28.10
2017-12-17T00:47:55.586Z,26.40
2017-12-17T00:48:30.623Z,24.20
2017-12-17T00:49:09.933Z,23.80
2017-12-17T00:49:47.382Z,26.60
2017-12-17T00:50:22.610Z,27.00
2017-12-17T00:50:58.082Z,24.90
2017-12-17T00:51:33.287Z,24.20
2017-12-17T00:52:08.686Z,24.60
2017-12-17T00:52:43.860Z,29.40
2017-12-17T00:53:19.263Z,27.70
2017-12-17T00:53:54.735Z,26.40
2017-12-17T00:54:30.234Z,26.50
2017-12-17T00:55:05.730Z,29.80
2017-12-17T00:55:41.055Z,26.90
2017-12-17T00:56:16.561Z,24.50
2017-12-17T00:56:51.729Z,23.70
2017-12-17T00:57:27.052Z,27.10
2017-12-17T00:58:02.099Z,24.40
2017-12-17T00:58:38.192Z,22.00
2017-12-17T00:59:13.786Z,26.80
2017-12-17T00:59:50.773Z,27.70
2017-12-17T01:00:26.064Z,26.50
2017-12-17T01:01:01.545Z,28.40
2017-12-17T01:01:36.801Z,31.10
2017-12-17T01:02:12.189Z,27.10
2017-12-17T01:02:48.261Z,25.30
2017-12-17T01:03:23.372Z,25.20
2017-12-17T01:03:59.549Z,29.60
2017-12-17T01:04:34.842Z,30.70
2017-12-17T01:05:10.035Z,30.00
2017-12-17T01:05:45.406Z,26.90
2017-12-17T01:06:20.626Z,30.60
2017-12-17T01:06:56.104Z,31.00
2017-12-17T01:07:31.402Z,26.30
2017-12-17T01:08:06.818Z,25.00
2017-12-17T01:08:42.089Z,28.00
2017-12-17T01:09:17.292Z,30.80
2017-12-17T01:09:52.659Z,27.70
2017-12-17T01:10:27.951Z,25.80
2017-12-17T01:11:05.046Z,25.60
2017-12-17T01:11:40.145Z,26.20
2017-12-17T01:12:15.461Z,26.60
2017-12-17T01:12:50.730Z,26.20
2017-12-17T01:13:26.079Z,23.90
2017-12-17T01:14:01.454Z,26.60
2017-12-17T01:14:36.958Z,28.80
2017-12-17T01:15:12.353Z,37.00
2017-12-17T01:15:47.822Z,29.10
2017-12-17T01:16:23.716Z,25.50
2017-12-17T01:16:59.031Z,24.90
2017-12-17T01:17:34.322Z,28.60
2017-12-17T01:18:09.628Z,27.70
2017-12-17T01:18:46.796Z,24.90
2017-12-17T01:19:21.892Z,23.60
2017-12-17T01:19:57.262Z,27.20
2017-12-17T01:20:32.464Z,27.60
2017-12-17T01:21:10.550Z,26.60
2017-12-17T01:21:45.819Z,33.20
2017-12-17T01:22:21.059Z,32.60
2017-12-17T01:22:56.523Z,25.20
2017-12-17T01:23:31.921Z,28.70
2017-12-17T01:24:07.427Z,25.30
2017-12-17T01:24:43.603Z,27.10
2017-12-17T01:25:19.100Z,29.90
2017-12-17T01:25:57.482Z,27.00
2017-12-17T01:26:35.078Z,29.20
2017-12-17T01:27:11.269Z,28.10
2017-12-17T01:27:47.167Z,28.50
2017-12-17T01:28:22.257Z,28.60
2017-12-17T01:28:57.421Z,30.60
2017-12-17T01:29:32.916Z,28.90
2017-12-17T01:30:08.210Z,27.00
2017-12-17T01:30:45.587Z,31.10
2017-12-17T01:31:21.273Z,28.50
2017-12-17T01:31:56.554Z,30.70
2017-12-17T01:32:31.741Z,29.10
2017-12-17T01:33:06.974Z,31.20
2017-12-17T01:33:42.544Z,33.10
2017-12-17T01:34:17.939Z,31.60
2017-12-17T01:34:53.017Z,30.70
2017-12-17T01:35:28.317Z,30.60
2017-12-17T01:36:03.513Z,32.00
2017-12-17T01:36:39.180Z,30.30
2017-12-17T01:37:14.681Z,25.80
2017-12-17T01:37:49.759Z,25.80
2017-12-17T01:38:24.881Z,31.00
2017-12-17T01:39:00.354Z,29.10
2017-12-17T01:39:35.647Z,27.60
2017-12-17T01:40:11.560Z,29.30
2017-12-17T01:40:48.728Z,26.70
2017-12-17T01:41:23.825Z,25.80
2017-12-17T01:41:59.191Z,26.70
2017-12-17T01:42:34.596Z,30.90
2017-12-17T01:43:09.982Z,27.20
2017-12-17T01:43:46.878Z,26.60
2017-12-17T01:44:22.168Z,26.50
2017-12-17T01:44:59.636Z,25.80
2017-12-17T01:45:35.039Z,26.20
2017-12-17T01:46:14.332Z,29.90
2017-12-17T01:46:52.498Z,29.40
2017-12-17T01:47:27.988Z,27.90
2017-12-17T01:48:03.082Z,29.50
2017-12-17T01:48:41.768Z,29.50
2017-12-17T01:49:16.895Z,25.60
2017-12-17T01:49:52.166Z,27.30
2017-12-17T01:50:31.459Z,26.20
2017-12-17T01:51:10.066Z,27.70
2017-12-17T01:51:45.238Z,28.10
2017-12-17T01:52:20.737Z,26.30
2017-12-17T01:53:01.204Z,24.70
2017-12-17T01:53:38.294Z,23.40
2017-12-17T01:54:17.421Z,24.00
2017-12-17T01:54:56.088Z,28.30
2017-12-17T01:55:31.389Z,30.40
2017-12-17T01:56:06.703Z,29.00
2017-12-17T01:56:42.908Z,27.50
2017-12-17T01:57:18.267Z,23.30
2017-12-17T01:57:53.546Z,27.90
2017-12-17T01:58:28.838Z,28.80
2017-12-17T01:59:04.342Z,26.40
2017-12-17T01:59:40.331Z,24.20
2017-12-17T02:00:15.830Z,23.00
2017-12-17T02:00:54.397Z,23.50
2017-12-17T02:01:29.586Z,24.30
2017-12-17T02:02:04.995Z,24.70
2017-12-17T02:02:40.368Z,26.40
2017-12-17T02:03:15.772Z,27.90
2017-12-17T02:03:52.136Z,25.80
2017-12-17T02:04:27.351Z,27.90
2017-12-17T02:05:02.690Z,26.90
2017-12-17T02:05:38.763Z,26.10
2017-12-17T02:06:14.202Z,25.60
2017-12-17T02:06:49.878Z,24.80
2017-12-17T02:07:29.372Z,23.20
2017-12-17T02:08:05.681Z,24.70
2017-12-17T02:08:44.355Z,26.30
2017-12-17T02:09:19.854Z,29.80
2017-12-17T02:09:55.227Z,27.10
2017-12-17T02:10:30.647Z,25.00
2017-12-17T02:11:05.950Z,31.70
2017-12-17T02:11:41.020Z,29.80
2017-12-17T02:12:16.230Z,25.00
2017-12-17T02:12:51.700Z,26.70
2017-12-17T02:13:29.101Z,30.50
2017-12-17T02:14:04.407Z,28.90
2017-12-17T02:14:39.784Z,27.70
2017-12-17T02:15:15.196Z,25.60
2017-12-17T02:15:52.799Z,25.60
2017-12-17T02:16:28.091Z,27.80
2017-12-17T02:17:03.296Z,25.30
2017-12-17T02:17:38.961Z,27.40
2017-12-17T02:18:14.358Z,28.00
2017-12-17T02:18:49.530Z,32.00
2017-12-17T02:19:25.020Z,34.30
2017-12-17T02:20:00.393Z,34.50
2017-12-17T02:20:36.692Z,30.10
2017-12-17T02:21:12.023Z,30.70
2017-12-17T02:21:47.489Z,31.10
2017-12-17T02:22:23.391Z,27.70
2017-12-17T02:22:58.865Z,29.00
2017-12-17T02:23:34.368Z,27.10
2017-12-17T02:24:14.265Z,30.30
2017-12-17T02:24:49.731Z,30.60
2017-12-17T02:25:25.436Z,26.50
2017-12-17T02:26:03.505Z,29.00
2017-12-17T02:26:38.952Z,30.40
2017-12-17T02:27:14.543Z,27.80
2017-12-17T02:27:52.845Z,28.00
2017-12-17T02:28:28.132Z,30.20
2017-12-17T02:29:03.630Z,27.40
2017-12-17T02:29:39.109Z,27.70
2017-12-17T02:30:14.607Z,27.50
2017-12-17T02:30:49.678Z,27.10
2017-12-17T02:31:25.168Z,27.70
2017-12-17T02:32:01.466Z,26.20
2017-12-17T02:32:36.969Z,23.20
2017-12-17T02:33:12.678Z,27.00
2017-12-17T02:33:52.383Z,27.50
2017-12-17T02:34:27.577Z,27.70
2017-12-17T02:35:03.172Z,28.70
2017-12-17T02:35:39.839Z,24.80
2017-12-17T02:36:15.028Z,22.00
2017-12-17T02:36:50.424Z,30.40
2017-12-17T02:37:25.837Z,29.10
2017-12-17T02:38:01.123Z,25.00
2017-12-17T02:38:37.309Z,25.70
2017-12-17T02:39:13.006Z,24.50
2017-12-17T02:39:48.294Z,24.20
2017-12-17T02:40:23.681Z,22.80
2017-12-17T02:40:59.590Z,24.00
2017-12-17T02:41:34.947Z,24.70
2017-12-17T02:42:10.066Z,24.10
2017-12-17T02:42:48.438Z,23.40
2017-12-17T02:43:24.026Z,25.10
2017-12-17T02:43:59.495Z,24.90
2017-12-17T02:44:34.590Z,27.40
2017-12-17T02:45:10.088Z,26.30
2017-12-17T02:45:45.551Z,25.90
2017-12-17T02:46:22.552Z,29.90
2017-12-17T02:46:57.761Z,29.20
2017-12-17T02:47:32.960Z,29.30
2017-12-17T02:48:08.555Z,26.50
2017-12-17T02:48:43.827Z,22.90
2017-12-17T02:49:19.025Z,28.80
2017-12-17T02:49:54.795Z,29.50
2017-12-17T02:50:30.980Z,25.50
2017-12-17T02:51:11.784Z,23.60
2017-12-17T02:51:46.956Z,26.20
2017-12-17T02:52:22.377Z,28.80
2017-12-17T02:52:57.747Z,25.90
2017-12-17T02:53:33.048Z,28.80
2017-12-17T02:54:09.046Z,32.00
2017-12-17T02:54:44.118Z,30.90
2017-12-17T02:55:19.524Z,31.60
2017-12-17T02:55:54.796Z,29.80
2017-12-17T02:56:30.087Z,27.10
2017-12-17T02:57:05.211Z,29.30
2017-12-17T02:57:41.466Z,29.00
2017-12-17T02:58:16.753Z,27.00
2017-12-17T02:58:52.833Z,26.90
2017-12-17T02:59:28.418Z,24.00
2017-12-17T03:00:03.708Z,24.60
2017-12-17T03:00:40.269Z,26.50
2017-12-17T03:01:15.473Z,24.80
2017-12-17T03:01:51.148Z,29.00
2017-12-17T03:02:26.566Z,28.40
2017-12-17T03:03:01.741Z,28.70
2017-12-17T03:03:37.136Z,28.10
2017-12-17T03:04:12.247Z,29.60
2017-12-17T03:04:47.622Z,25.20
2017-12-17T03:05:23.220Z,24.60
2017-12-17T03:06:00.094Z,25.50
2017-12-17T03:06:37.407Z,30.50
2017-12-17T03:07:14.531Z,28.50
2017-12-17T03:07:49.594Z,25.20
2017-12-17T03:08:25.092Z,27.50
2017-12-17T03:09:00.752Z,26.50
2017-12-17T03:09:36.152Z,24.70
2017-12-17T03:10:11.452Z,23.80
2017-12-17T03:10:46.523Z,29.30
2017-12-17T03:11:22.125Z,27.00
2017-12-17T03:11:57.289Z,28.70
2017-12-17T03:12:32.711Z,35.00
2017-12-17T03:13:11.303Z,27.30
2017-12-17T03:13:46.669Z,29.20
2017-12-17T03:14:21.864Z,32.40
2017-12-17T03:15:00.420Z,27.30
2017-12-17T03:15:36.422Z,29.90
2017-12-17T03:16:11.824Z,29.00
2017-12-17T03:16:49.494Z,26.20
2017-12-17T03:17:24.805Z,27.40
2017-12-17T03:18:00.273Z,29.70
2017-12-17T03:18:35.472Z,32.70
2017-12-17T03:19:10.864Z,28.90
2017-12-17T03:19:46.740Z,27.70
2017-12-17T03:20:21.956Z,28.00
2017-12-17T03:20:59.003Z,26.70
2017-12-17T03:21:34.246Z,23.80
2017-12-17T03:22:10.818Z,28.60
2017-12-17T03:22:46.387Z,27.90
2017-12-17T03:23:21.580Z,29.30
2017-12-17T03:23:56.957Z,30.00
2017-12-17T03:24:32.254Z,30.20
2017-12-17T03:25:07.558Z,31.60
2017-12-17T03:25:44.119Z,26.80
2017-12-17T03:26:19.909Z,28.80
2017-12-17T03:26:55.204Z,36.00
2017-12-17T03:27:30.626Z,27.00
2017-12-17T03:28:06.023Z,26.60
2017-12-17T03:28:41.393Z,25.90
2017-12-17T03:29:16.595Z,25.70
2017-12-17T03:29:51.959Z,27.90
2017-12-17T03:30:27.250Z,30.90
2017-12-17T03:31:02.619Z,32.00
2017-12-17T03:31:37.909Z,32.30
2017-12-17T03:32:13.404Z,31.60
2017-12-17T03:32:48.795Z,31.60
2017-12-17T03:33:24.282Z,26.70
2017-12-17T03:33:59.859Z,30.30
2017-12-17T03:34:35.749Z,31.50
2017-12-17T03:35:11.255Z,28.00
2017-12-17T03:35:46.323Z,30.30
2017-12-17T03:36:21.519Z,28.90
2017-12-17T03:36:58.984Z,31.70
2017-12-17T03:37:34.204Z,31.40
2017-12-17T03:38:09.292Z,28.90
2017-12-17T03:38:44.959Z,26.10
2017-12-17T03:39:19.959Z,26.50
2017-12-17T03:39:55.145Z,29.30
2017-12-17T03:40:30.148Z,32.60
2017-12-17T03:41:05.340Z,35.40
2017-12-17T03:41:40.910Z,32.30
2017-12-17T03:42:16.110Z,27.40
2017-12-17T03:42:51.207Z,29.40
2017-12-17T03:43:26.611Z,33.70
2017-12-17T03:44:02.085Z,33.10
2017-12-17T03:44:37.682Z,29.70
2017-12-17T03:45:12.773Z,26.90
2017-12-17T03:45:48.344Z,29.00
2017-12-17T03:46:23.528Z,36.10
2017-12-17T03:46:59.104Z,29.00
2017-12-17T03:47:34.607Z,24.90
2017-12-17T03:48:09.795Z,30.20
2017-12-17T03:48:48.078Z,32.60
2017-12-17T03:49:23.163Z,28.00
2017-12-17T03:50:01.657Z,28.70
2017-12-17T03:50:37.155Z,35.20
2017-12-17T03:51:15.054Z,35.80
2017-12-17T03:51:50.420Z,35.00
2017-12-17T03:52:25.909Z,31.80
2017-12-17T03:53:01.308Z,32.70
2017-12-17T03:53:36.503Z,32.30
2017-12-17T03:54:11.997Z,32.50
2017-12-17T03:54:47.461Z,35.50
2017-12-17T03:55:23.350Z,35.00
2017-12-17T03:56:01.025Z,32.80
2017-12-17T03:56:36.223Z,31.30
2017-12-17T03:57:12.527Z,28.30
2017-12-17T03:57:48.115Z,30.70
2017-12-17T03:58:23.519Z,31.00
2017-12-17T03:58:58.683Z,31.40
2017-12-17T03:59:33.875Z,28.60
2017-12-17T04:00:09.379Z,32.90
2017-12-17T04:00:46.945Z,32.40
2017-12-17T04:01:22.046Z,31.10
2017-12-17T04:01:57.219Z,36.50
2017-12-17T04:02:32.212Z,37.50
2017-12-17T04:03:07.727Z,31.40
2017-12-17T04:03:43.890Z,34.60
2017-12-17T04:04:19.282Z,34.50
2017-12-17T04:04:54.547Z,30.30
2017-12-17T04:05:30.241Z,35.80
2017-12-17T04:06:05.538Z,37.90
2017-12-17T04:06:41.003Z,31.10
2017-12-17T04:07:16.691Z,29.30
2017-12-17T04:07:51.783Z,33.70
2017-12-17T04:08:27.175Z,30.10
2017-12-17T04:09:04.354Z,31.10
2017-12-17T04:09:39.745Z,33.60
2017-12-17T04:10:15.142Z,31.80
2017-12-17T04:10:51.117Z,32.80
2017-12-17T04:11:26.502Z,33.80
2017-12-17T04:12:01.784Z,32.60
2017-12-17T04:12:39.273Z,32.70
2017-12-17T04:13:14.591Z,34.30
2017-12-17T04:13:49.967Z,30.10
2017-12-17T04:14:25.060Z,33.10
2017-12-17T04:15:00.371Z,32.90
2017-12-17T04:15:36.360Z,33.20
2017-12-17T04:16:11.984Z,33.30
2017-12-17T04:16:47.453Z,34.10
2017-12-17T04:17:22.647Z,31.60
2017-12-17T04:17:58.039Z,32.50
2017-12-17T04:18:33.634Z,34.90
2017-12-17T04:19:08.824Z,35.20
2017-12-17T04:19:44.292Z,34.70
2017-12-17T04:20:19.590Z,32.40
2017-12-17T04:20:56.966Z,33.60
2017-12-17T04:21:32.158Z,37.80
2017-12-17T04:22:07.756Z,33.90
2017-12-17T04:22:42.920Z,35.20
2017-12-17T04:23:18.447Z,36.20
2017-12-17T04:23:53.809Z,34.20
2017-12-17T04:24:28.905Z,35.70
2017-12-17T04:25:05.293Z,35.00
2017-12-17T04:25:41.562Z,35.40
2017-12-17T04:26:16.960Z,35.30
2017-12-17T04:26:52.340Z,34.20
2017-12-17T04:27:27.631Z,34.70
2017-12-17T04:28:03.321Z,33.30
2017-12-17T04:28:38.919Z,32.40
2017-12-17T04:29:14.413Z,32.20
2017-12-17T04:29:49.786Z,34.70
2017-12-17T04:30:25.286Z,38.30
2017-12-17T04:31:00.448Z,32.70
2017-12-17T04:31:35.747Z,29.70
2017-12-17T04:32:11.139Z,29.80
2017-12-17T04:32:46.516Z,32.60
2017-12-17T04:33:21.749Z,30.60
2017-12-17T04:33:58.817Z,29.90
2017-12-17T04:34:33.914Z,34.20
2017-12-17T04:35:09.600Z,34.20
2017-12-17T04:35:44.672Z,33.90
2017-12-17T04:36:20.958Z,33.50
2017-12-17T04:36:56.226Z,34.10
2017-12-17T04:37:31.528Z,36.50
2017-12-17T04:38:06.748Z,33.70
2017-12-17T04:38:44.019Z,30.60
2017-12-17T04:39:19.309Z,34.70
2017-12-17T04:39:54.796Z,35.70
2017-12-17T04:40:30.175Z,36.60
2017-12-17T04:41:05.499Z,34.20
2017-12-17T04:41:41.468Z,30.80
2017-12-17T04:42:16.754Z,31.10
2017-12-17T04:42:52.024Z,33.40
2017-12-17T04:43:27.587Z,34.50
2017-12-17T04:44:03.057Z,33.70
2017-12-17T04:44:39.146Z,31.50
2017-12-17T04:45:14.350Z,30.70
2017-12-17T04:45:49.816Z,31.20
2017-12-17T04:46:25.104Z,33.00
2017-12-17T04:47:01.113Z,30.40
2017-12-17T04:47:36.611Z,28.40
2017-12-17T04:48:12.631Z,32.50
2017-12-17T04:48:47.791Z,31.70
2017-12-17T04:49:23.089Z,31.10
2017-12-17T04:49:58.450Z,33.30
2017-12-17T04:50:33.448Z,33.30
2017-12-17T04:51:08.843Z,30.70
2017-12-17T04:51:44.007Z,30.70
2017-12-17T04:52:19.602Z,29.70
2017-12-17T04:52:54.985Z,29.60
2017-12-17T04:53:30.703Z,28.60
2017-12-17T04:54:06.196Z,28.50
2017-12-17T04:54:43.266Z,28.60
2017-12-17T04:55:18.368Z,28.90
2017-12-17T04:55:53.637Z,30.00
2017-12-17T04:56:29.234Z,32.00
2017-12-17T04:57:04.624Z,27.70
2017-12-17T04:57:40.097Z,26.40
2017-12-17T04:58:15.497Z,31.10
2017-12-17T04:58:50.788Z,31.80
2017-12-17T04:59:26.205Z,30.80
2017-12-17T05:00:01.677Z,35.80
2017-12-17T05:00:37.879Z,32.70
2017-12-17T05:01:12.965Z,28.40
2017-12-17T05:01:48.637Z,34.00
2017-12-17T05:02:24.029Z,34.80
2017-12-17T05:02:59.395Z,35.50
2017-12-17T05:03:34.810Z,33.00
2017-12-17T05:04:10.004Z,27.20
2017-12-17T05:04:46.567Z,29.20
2017-12-17T05:05:21.865Z,31.70
2017-12-17T05:06:00.363Z,30.10
2017-12-17T05:06:42.354Z,31.60
2017-12-17T05:07:18.048Z,33.60
2017-12-17T05:07:53.126Z,32.10
2017-12-17T05:08:28.536Z,31.80
2017-12-17T05:09:03.830Z,33.90
2017-12-17T05:09:39.097Z,34.00
2017-12-17T05:10:14.897Z,33.30
2017-12-17T05:10:50.164Z,30.00
2017-12-17T05:11:25.764Z,31.40
2017-12-17T05:12:01.244Z,32.60
2017-12-17T05:12:36.733Z,29.20
2017-12-17T05:13:12.223Z,30.20
2017-12-17T05:13:47.608Z,31.30
2017-12-17T05:14:22.824Z,28.30
2017-12-17T05:14:58.391Z,31.80
2017-12-17T05:15:33.782Z,33.50
2017-12-17T05:16:10.175Z,29.20
2017-12-17T05:16:47.357Z,29.70
2017-12-17T05:17:23.336Z,28.40
2017-12-17T05:17:58.610Z,35.20
2017-12-17T05:18:34.043Z,39.10
2017-12-17T05:19:09.442Z,35.20
2017-12-17T05:19:44.919Z,34.90
2017-12-17T05:20:20.225Z,32.30
2017-12-17T05:20:55.388Z,31.00
2017-12-17T05:21:30.883Z,33.90
2017-12-17T05:22:06.365Z,30.80
2017-12-17T05:22:45.738Z,26.50
2017-12-17T05:23:21.909Z,36.30
2017-12-17T05:23:57.424Z,33.20
2017-12-17T05:24:33.010Z,27.70
2017-12-17T05:25:10.198Z,30.00
2017-12-17T05:25:46.074Z,35.90
2017-12-17T05:26:24.262Z,34.60
2017-12-17T05:26:59.928Z,34.50
2017-12-17T05:27:35.232Z,35.90
2017-12-17T05:28:10.616Z,36.80
2017-12-17T05:28:45.914Z,35.50
2017-12-17T05:29:21.507Z,32.20
2017-12-17T05:29:56.777Z,29.00
2017-12-17T05:30:32.270Z,29.00
2017-12-17T05:31:07.661Z,33.50
2017-12-17T05:31:43.431Z,35.00
2017-12-17T05:32:18.723Z,34.30
2017-12-17T05:32:53.900Z,34.00
2017-12-17T05:33:29.295Z,31.70
2017-12-17T05:34:04.911Z,36.50
2017-12-17T05:34:40.307Z,37.80
2017-12-17T05:35:15.578Z,38.90
2017-12-17T05:35:51.453Z,39.80
2017-12-17T05:36:27.145Z,32.20
2017-12-17T05:37:02.624Z,29.80
2017-12-17T05:37:38.115Z,34.20
2017-12-17T05:38:13.416Z,39.30
2017-12-17T05:38:48.813Z,35.20
2017-12-17T05:39:24.611Z,34.70
2017-12-17T05:39:59.885Z,34.60
2017-12-17T05:40:35.779Z,34.60
2017-12-17T05:41:11.075Z,36.10
2017-12-17T05:41:46.439Z,37.90
2017-12-17T05:42:22.038Z,35.80
2017-12-17T05:42:57.307Z,39.90
2017-12-17T05:43:32.919Z,38.00
2017-12-17T05:44:08.228Z,40.00
2017-12-17T05:44:43.710Z,40.70
2017-12-17T05:45:19.024Z,38.10
2017-12-17T05:45:54.607Z,44.50
2017-12-17T05:46:33.200Z,44.70
2017-12-17T05:47:08.589Z,41.90
2017-12-17T05:47:44.967Z,37.00
2017-12-17T05:48:20.661Z,37.00
2017-12-17T05:48:56.223Z,36.80
2017-12-17T05:49:31.718Z,37.70
2017-12-17T05:50:07.009Z,36.30
2017-12-17T05:50:43.075Z,33.40
2017-12-17T05:51:18.707Z,36.90
2017-12-17T05:51:54.678Z,37.10
2017-12-17T05:52:30.180Z,41.80
2017-12-17T05:53:05.373Z,42.30
2017-12-17T05:53:42.339Z,39.90
2017-12-17T05:54:18.652Z,37.40
2017-12-17T05:54:54.241Z,40.40
2017-12-17T05:55:29.841Z,46.50
2017-12-17T05:56:04.944Z,42.90
2017-12-17T05:56:42.729Z,40.00
2017-12-17T05:57:18.242Z,43.40
2017-12-17T05:57:53.642Z,42.00
2017-12-17T05:58:29.437Z,35.40
2017-12-17T05:59:04.860Z,43.40
2017-12-17T05:59:40.248Z,43.30
2017-12-17T06:00:15.657Z,37.40
2017-12-17T06:00:51.946Z,40.30
2017-12-17T06:01:27.548Z,48.30
2017-12-17T06:02:02.645Z,53.00
2017-12-17T06:02:40.758Z,49.10
2017-12-17T06:03:18.562Z,40.10
2017-12-17T06:03:57.156Z,38.60
2017-12-17T06:04:33.869Z,40.50
2017-12-17T06:05:13.217Z,52.80
2017-12-17T06:05:48.561Z,52.10
2017-12-17T06:06:25.875Z,44.70
2017-12-17T06:07:02.371Z,42.90
2017-12-17T06:07:37.792Z,40.00
2017-12-17T06:08:13.200Z,41.20
2017-12-17T06:08:48.492Z,43.70
2017-12-17T06:09:24.214Z,51.90
2017-12-17T06:09:59.404Z,53.80
2017-12-17T06:10:35.301Z,48.80
2017-12-17T06:11:11.010Z,44.80
2017-12-17T06:11:46.977Z,47.00
2017-12-17T06:12:22.182Z,44.10
2017-12-17T06:12:58.477Z,44.60
2017-12-17T06:13:36.893Z,45.60
2017-12-17T06:14:12.433Z,44.70
2017-12-17T06:14:48.417Z,50.70
2017-12-17T06:15:24.148Z,46.40
2017-12-17T06:15:59.727Z,39.20
2017-12-17T06:16:36.327Z,42.90
2017-12-17T06:17:11.330Z,48.60
2017-12-17T06:17:46.523Z,53.40
2017-12-17T06:18:21.620Z,48.20
2017-12-17T06:18:59.012Z,43.20
2017-12-17T06:19:37.548Z,42.40
2017-12-17T06:20:16.275Z,39.40
2017-12-17T06:20:56.168Z,44.80
2017-12-17T06:21:34.883Z,50.10
2017-12-17T06:24:49.219Z,42.30
2017-12-17T06:27:26.905Z,45.70
2017-12-17T06:28:02.187Z,48.40
2017-12-17T06:28:40.581Z,43.90
2017-12-17T06:29:16.060Z,38.90
2017-12-17T06:29:51.455Z,40.90
2017-12-17T06:30:26.733Z,43.10
2017-12-17T06:31:01.896Z,41.10
2017-12-17T06:31:37.294Z,46.90
2017-12-17T06:32:12.691Z,47.80
2017-12-17T06:32:48.074Z,42.00
2017-12-17T06:33:23.355Z,49.30
2017-12-17T06:33:58.757Z,46.90
2017-12-17T06:34:34.270Z,41.40
2017-12-17T06:35:09.663Z,44.80
2017-12-17T06:35:45.131Z,40.80
2017-12-17T06:36:20.518Z,39.80
2017-12-17T06:36:55.785Z,39.00
2017-12-17T06:37:31.153Z,42.00
2017-12-17T06:38:06.340Z,39.60
2017-12-17T06:38:41.313Z,43.20
2017-12-17T06:39:16.401Z,43.10
2017-12-17T06:39:51.889Z,40.60
2017-12-17T06:40:27.177Z,40.40
2017-12-17T06:41:02.554Z,41.00
2017-12-17T06:41:37.571Z,41.80
2017-12-17T06:42:13.056Z,39.90
2017-12-17T06:42:48.634Z,38.50
2017-12-17T06:43:24.029Z,44.70
2017-12-17T06:43:59.200Z,43.00
2017-12-17T06:44:34.517Z,40.10
2017-12-17T06:45:10.617Z,39.20
2017-12-17T06:45:45.767Z,42.00
2017-12-17T06:46:21.257Z,46.80
2017-12-17T06:46:56.824Z,44.00
2017-12-17T06:47:32.206Z,44.00
2017-12-17T06:48:07.286Z,44.10
2017-12-17T06:48:42.849Z,41.40
2017-12-17T06:49:18.347Z,43.50
2017-12-17T06:49:53.582Z,45.20
2017-12-17T06:50:29.048Z,48.30
2017-12-17T06:51:04.736Z,48.90
2017-12-17T06:51:39.913Z,47.50
2017-12-17T06:52:15.215Z,46.80
2017-12-17T06:52:50.257Z,46.50
2017-12-17T06:53:26.344Z,45.50
2017-12-17T06:54:01.807Z,47.50
2017-12-17T06:54:37.005Z,48.50
2017-12-17T06:55:12.200Z,52.40
2017-12-17T06:55:47.472Z,56.00
2017-12-17T06:56:22.858Z,55.60
2017-12-17T06:56:58.722Z,46.30
2017-12-17T06:57:33.913Z,45.40
2017-12-17T06:58:09.103Z,45.40
2017-12-17T06:58:44.355Z,45.20
2017-12-17T06:59:19.640Z,51.90
2017-12-17T06:59:54.920Z,55.80
2017-12-17T07:00:30.402Z,50.80
2017-12-17T07:01:05.997Z,49.50
2017-12-17T07:01:41.351Z,51.30
2017-12-17T07:02:16.539Z,55.60
2017-12-17T07:02:51.604Z,63.40
2017-12-17T07:03:26.886Z,62.10
2017-12-17T07:04:02.255Z,56.20
2017-12-17T07:04:38.141Z,53.60
2017-12-17T07:05:13.763Z,56.00
2017-12-17T07:05:53.014Z,57.20
2017-12-17T07:06:28.100Z,74.20
2017-12-17T07:07:03.484Z,73.50
2017-12-17T07:07:39.889Z,62.40
2017-12-17T07:08:15.758Z,58.60
2017-12-17T07:08:50.833Z,58.40
2017-12-17T07:09:26.217Z,57.50
2017-12-17T07:10:01.498Z,53.10
2017-12-17T07:10:37.380Z,57.70
2017-12-17T07:11:12.770Z,61.20
2017-12-17T07:11:48.318Z,70.30
2017-12-17T07:12:23.607Z,71.80
2017-12-17T07:12:58.687Z,62.80
2017-12-17T07:13:34.982Z,60.20
2017-12-17T07:14:10.060Z,63.30
2017-12-17T07:14:45.326Z,60.60
2017-12-17T07:15:20.534Z,64.90
2017-12-17T07:15:55.591Z,67.80
2017-12-17T07:16:30.884Z,68.90
2017-12-17T07:17:06.071Z,74.50
2017-12-17T07:17:41.638Z,73.30
2017-12-17T07:18:17.020Z,69.60
2017-12-17T07:18:52.475Z,69.60
2017-12-17T07:19:27.954Z,76.70
2017-12-17T07:20:03.242Z,71.60
2017-12-17T07:20:40.126Z,75.50
2017-12-17T07:21:15.309Z,67.00
2017-12-17T07:21:50.385Z,64.80
2017-12-17T07:22:25.568Z,74.20
2017-12-17T07:23:00.829Z,76.60
2017-12-17T07:23:37.810Z,71.20
2017-12-17T07:24:12.786Z,71.30
2017-12-17T07:24:48.059Z,69.40
2017-12-17T07:25:23.367Z,66.20
2017-12-17T07:25:58.519Z,69.70
2017-12-17T07:26:33.811Z,82.00
2017-12-17T07:27:09.191Z,80.30
2017-12-17T07:27:46.652Z,78.40
2017-12-17T07:28:22.043Z,79.00
2017-12-17T07:28:57.503Z,75.70
2017-12-17T07:29:32.793Z,78.60
2017-12-17T07:30:08.498Z,75.70
2017-12-17T07:30:43.955Z,75.30
2017-12-17T07:31:19.236Z,80.90
2017-12-17T07:31:54.696Z,83.60
2017-12-17T07:32:29.985Z,74.60
2017-12-17T07:33:05.467Z,66.80
2017-12-17T07:33:40.645Z,70.60
2017-12-17T07:34:15.925Z,71.70
2017-12-17T07:34:51.184Z,69.90
2017-12-17T07:35:26.898Z,67.80
2017-12-17T07:36:02.264Z,71.00
2017-12-17T07:36:38.646Z,72.90
2017-12-17T07:37:14.127Z,76.00
2017-12-17T07:37:49.694Z,76.30
2017-12-17T07:38:24.986Z,74.10
2017-12-17T07:39:00.350Z,71.00
2017-12-17T07:39:35.669Z,74.70
2017-12-17T07:40:10.856Z,78.80
2017-12-17T07:40:46.943Z,74.80
2017-12-17T07:41:22.249Z,72.00
2017-12-17T07:41:57.713Z,76.00
2017-12-17T07:42:33.304Z,71.70
2017-12-17T07:43:08.784Z,68.50
2017-12-17T07:43:44.247Z,74.50
2017-12-17T07:44:20.038Z,74.70
2017-12-17T07:44:55.304Z,77.50